Portada
METAR-TAF:

METAR-TAF

Aeroports :

Isedor Iverson Airport

McGregor, Minnesota, Estats Units d'Amèrica

latitud: 46-37-07N, longitud: 093-18-35W, altitud: 374 m

Observació

L'informe es va fer fa 11 minuts, a les 03:35 UTC
Vent 6 kt del Nord
Temperatura 19°C
Humitat 83%
Pressió 1014 hPa
Visibilitat: 16.1 km
Cel cobert a una alçada de 10000 ft

METAR: KHZX 180335Z AUTO 36006KT 10SM OVC100 19/16 A2993 RMK AO2

Hora: 22:46 (03:46 UTC)


TAF: manca

Observacions i pronòstics meteorològics de més de 4000 aeroports (METAR i TAF).

Les estacions disponibles són els punts grocs i vermells al mapa.

Posi el ratolí al punt desitjat per veure el nom de l'estació.

Feu clic per veure les observacions i els pronòstics meteorològics.

Per canviar el mapa: feu clic els botons verds amb una creu de color negre per apropar; al botó verd amb un guió per allunyar la imatge; o en les fletxes verdes per a mapes adjacents.


METAR-TAF: